sensor_id;sensor_type;location;lat;lon;timestamp;P1;durP1;ratioP1;P2;durP2;ratioP2
7517;SDS011;3800;48.922;9.444;2023-04-24T00:01:43;3.47;;;1.40;;
7517;SDS011;3800;48.922;9.444;2023-04-24T00:04:11;1.93;;;1.40;;
7517;SDS011;3800;48.922;9.444;2023-04-24T00:06:40;1.63;;;1.30;;
7517;SDS011;3800;48.922;9.444;2023-04-24T00:09:08;2.03;;;1.30;;
7517;SDS011;3800;48.922;9.444;2023-04-24T00:11:36;1.60;;;1.20;;
7517;SDS011;3800;48.922;9.444;2023-04-24T00:14:04;2.20;;;1.60;;
7517;SDS011;3800;48.922;9.444;2023-04-24T00:16:33;2.10;;;1.50;;
7517;SDS011;3800;48.922;9.444;2023-04-24T00:19:02;1.90;;;1.50;;
7517;SDS011;3800;48.922;9.444;2023-04-24T00:21:31;1.50;;;1.40;;
7517;SDS011;3800;48.922;9.444;2023-04-24T00:23:59;1.50;;;1.37;;
7517;SDS011;3800;48.922;9.444;2023-04-24T00:26:28;2.07;;;1.40;;
7517;SDS011;3800;48.922;9.444;2023-04-24T00:28:56;3.07;;;1.50;;
7517;SDS011;3800;48.922;9.444;2023-04-24T00:31:24;2.13;;;1.40;;
7517;SDS011;3800;48.922;9.444;2023-04-24T00:33:53;2.30;;;1.37;;
7517;SDS011;3800;48.922;9.444;2023-04-24T00:36:21;2.27;;;1.40;;
7517;SDS011;3800;48.922;9.444;2023-04-24T00:38:49;2.63;;;1.30;;
7517;SDS011;3800;48.922;9.444;2023-04-24T00:41:18;2.73;;;1.20;;
7517;SDS011;3800;48.922;9.444;2023-04-24T00:43:47;2.03;;;1.20;;
7517;SDS011;3800;48.922;9.444;2023-04-24T00:46:15;2.50;;;1.30;;
7517;SDS011;3800;48.922;9.444;2023-04-24T00:48:43;1.60;;;1.30;;
7517;SDS011;3800;48.922;9.444;2023-04-24T00:51:11;2.37;;;1.23;;
7517;SDS011;3800;48.922;9.444;2023-04-24T00:53:40;1.73;;;1.30;;
7517;SDS011;3800;48.922;9.444;2023-04-24T00:56:09;2.03;;;1.50;;
7517;SDS011;3800;48.922;9.444;2023-04-24T00:58:38;1.47;;;1.37;;
7517;SDS011;3800;48.922;9.444;2023-04-24T01:01:06;1.30;;;1.20;;
7517;SDS011;3800;48.922;9.444;2023-04-24T01:03:35;1.90;;;1.20;;
7517;SDS011;3800;48.922;9.444;2023-04-24T01:06:04;2.50;;;1.33;;
7517;SDS011;3800;48.922;9.444;2023-04-24T01:08:32;2.10;;;1.43;;
7517;SDS011;3800;48.922;9.444;2023-04-24T01:11:00;2.17;;;1.30;;
7517;SDS011;3800;48.922;9.444;2023-04-24T01:13:29;2.13;;;1.50;;
7517;SDS011;3800;48.922;9.444;2023-04-24T01:15:57;2.20;;;1.40;;
7517;SDS011;3800;48.922;9.444;2023-04-24T01:18:27;2.77;;;1.30;;
7517;SDS011;3800;48.922;9.444;2023-04-24T01:20:57;3.27;;;1.30;;
7517;SDS011;3800;48.922;9.444;2023-04-24T01:23:25;1.43;;;1.30;;
7517;SDS011;3800;48.922;9.444;2023-04-24T01:25:53;2.03;;;1.20;;
7517;SDS011;3800;48.922;9.444;2023-04-24T01:28:21;1.63;;;1.50;;
7517;SDS011;3800;48.922;9.444;2023-04-24T01:30:50;2.47;;;1.30;;
7517;SDS011;3800;48.922;9.444;2023-04-24T01:33:20;3.33;;;1.30;;
7517;SDS011;3800;48.922;9.444;2023-04-24T01:35:47;1.37;;;1.20;;
7517;SDS011;3800;48.922;9.444;2023-04-24T01:38:15;2.27;;;1.20;;
7517;SDS011;3800;48.922;9.444;2023-04-24T01:40:43;1.63;;;1.30;;
7517;SDS011;3800;48.922;9.444;2023-04-24T01:43:12;2.93;;;1.30;;
7517;SDS011;3800;48.922;9.444;2023-04-24T01:45:40;1.73;;;1.30;;
7517;SDS011;3800;48.922;9.444;2023-04-24T01:48:08;1.73;;;1.30;;
7517;SDS011;3800;48.922;9.444;2023-04-24T01:50:36;1.67;;;1.20;;
7517;SDS011;3800;48.922;9.444;2023-04-24T01:53:05;1.57;;;1.33;;
7517;SDS011;3800;48.922;9.444;2023-04-24T01:55:33;2.13;;;1.30;;
7517;SDS011;3800;48.922;9.444;2023-04-24T01:58:02;1.43;;;1.10;;
7517;SDS011;3800;48.922;9.444;2023-04-24T02:00:30;2.77;;;1.37;;
7517;SDS011;3800;48.922;9.444;2023-04-24T02:02:58;2.13;;;1.20;;
7517;SDS011;3800;48.922;9.444;2023-04-24T02:05:27;2.10;;;1.43;;
7517;SDS011;3800;48.922;9.444;2023-04-24T02:07:55;1.23;;;1.13;;
7517;SDS011;3800;48.922;9.444;2023-04-24T02:10:24;2.47;;;1.30;;
7517;SDS011;3800;48.922;9.444;2023-04-24T02:12:52;2.07;;;1.30;;
7517;SDS011;3800;48.922;9.444;2023-04-24T02:15:20;2.10;;;1.20;;
7517;SDS011;3800;48.922;9.444;2023-04-24T02:17:48;1.93;;;1.20;;
7517;SDS011;3800;48.922;9.444;2023-04-24T02:20:17;1.90;;;1.20;;
7517;SDS011;3800;48.922;9.444;2023-04-24T02:22:45;1.20;;;1.10;;
7517;SDS011;3800;48.922;9.444;2023-04-24T02:25:13;1.70;;;1.10;;
7517;SDS011;3800;48.922;9.444;2023-04-24T02:27:42;2.80;;;1.53;;
7517;SDS011;3800;48.922;9.444;2023-04-24T02:30:11;1.53;;;1.20;;
7517;SDS011;3800;48.922;9.444;2023-04-24T02:32:39;1.80;;;1.23;;
7517;SDS011;3800;48.922;9.444;2023-04-24T02:35:07;1.80;;;1.20;;
7517;SDS011;3800;48.922;9.444;2023-04-24T02:37:36;2.30;;;1.20;;
7517;SDS011;3800;48.922;9.444;2023-04-24T02:40:06;1.50;;;1.20;;
7517;SDS011;3800;48.922;9.444;2023-04-24T02:42:36;1.63;;;1.20;;
7517;SDS011;3800;48.922;9.444;2023-04-24T02:45:04;1.20;;;1.10;;
7517;SDS011;3800;48.922;9.444;2023-04-24T02:47:33;2.20;;;1.27;;
7517;SDS011;3800;48.922;9.444;2023-04-24T02:50:02;1.40;;;1.20;;
7517;SDS011;3800;48.922;9.444;2023-04-24T02:52:30;1.30;;;1.20;;
7517;SDS011;3800;48.922;9.444;2023-04-24T02:54:58;1.47;;;1.00;;
7517;SDS011;3800;48.922;9.444;2023-04-24T02:57:27;6.57;;;1.30;;
7517;SDS011;3800;48.922;9.444;2023-04-24T02:59:55;1.73;;;1.17;;
7517;SDS011;3800;48.922;9.444;2023-04-24T03:02:23;3.93;;;1.20;;
7517;SDS011;3800;48.922;9.444;2023-04-24T03:04:51;2.03;;;1.20;;
7517;SDS011;3800;48.922;9.444;2023-04-24T03:07:20;1.63;;;1.33;;
7517;SDS011;3800;48.922;9.444;2023-04-24T03:09:48;2.83;;;1.23;;
7517;SDS011;3800;48.922;9.444;2023-04-24T03:12:16;2.10;;;1.60;;
7517;SDS011;3800;48.922;9.444;2023-04-24T03:14:44;1.30;;;1.17;;
7517;SDS011;3800;48.922;9.444;2023-04-24T03:17:13;2.23;;;1.30;;
7517;SDS011;3800;48.922;9.444;2023-04-24T03:19:41;1.87;;;1.37;;
7517;SDS011;3800;48.922;9.444;2023-04-24T03:22:09;1.77;;;1.30;;
7517;SDS011;3800;48.922;9.444;2023-04-24T03:24:37;2.50;;;1.20;;
7517;SDS011;3800;48.922;9.444;2023-04-24T03:27:06;3.47;;;1.10;;
7517;SDS011;3800;48.922;9.444;2023-04-24T03:29:35;1.47;;;1.20;;
7517;SDS011;3800;48.922;9.444;2023-04-24T03:32:03;1.77;;;1.10;;
7517;SDS011;3800;48.922;9.444;2023-04-24T03:34:32;2.53;;;1.27;;
7517;SDS011;3800;48.922;9.444;2023-04-24T03:37:00;3.83;;;1.80;;
7517;SDS011;3800;48.922;9.444;2023-04-24T03:39:29;3.60;;;1.77;;
7517;SDS011;3800;48.922;9.444;2023-04-24T03:41:58;2.57;;;1.87;;
7517;SDS011;3800;48.922;9.444;2023-04-24T03:44:27;2.40;;;1.60;;
7517;SDS011;3800;48.922;9.444;2023-04-24T03:46:55;3.47;;;1.60;;
7517;SDS011;3800;48.922;9.444;2023-04-24T03:49:24;2.27;;;1.60;;
7517;SDS011;3800;48.922;9.444;2023-04-24T03:51:52;2.70;;;1.60;;
7517;SDS011;3800;48.922;9.444;2023-04-24T03:54:20;1.70;;;1.60;;
7517;SDS011;3800;48.922;9.444;2023-04-24T03:56:49;2.17;;;1.60;;
7517;SDS011;3800;48.922;9.444;2023-04-24T03:59:17;1.87;;;1.40;;
7517;SDS011;3800;48.922;9.444;2023-04-24T04:01:45;2.57;;;1.50;;
7517;SDS011;3800;48.922;9.444;2023-04-24T04:04:14;2.10;;;1.50;;
7517;SDS011;3800;48.922;9.444;2023-04-24T04:06:43;1.50;;;1.30;;
7517;SDS011;3800;48.922;9.444;2023-04-24T04:09:11;2.03;;;1.27;;
7517;SDS011;3800;48.922;9.444;2023-04-24T04:11:40;2.70;;;1.20;;
7517;SDS011;3800;48.922;9.444;2023-04-24T04:14:08;2.40;;;1.20;;
7517;SDS011;3800;48.922;9.444;2023-04-24T04:16:36;1.83;;;1.10;;
7517;SDS011;3800;48.922;9.444;2023-04-24T04:19:05;1.90;;;1.23;;
7517;SDS011;3800;48.922;9.444;2023-04-24T04:21:33;2.23;;;1.33;;
7517;SDS011;3800;48.922;9.444;2023-04-24T04:24:01;1.80;;;1.10;;
7517;SDS011;3800;48.922;9.444;2023-04-24T04:26:29;1.20;;;1.10;;
7517;SDS011;3800;48.922;9.444;2023-04-24T04:28:58;2.63;;;1.30;;
7517;SDS011;3800;48.922;9.444;2023-04-24T04:31:30;1.80;;;1.20;;
7517;SDS011;3800;48.922;9.444;2023-04-24T04:33:59;1.97;;;1.20;;
7517;SDS011;3800;48.922;9.444;2023-04-24T04:36:29;3.03;;;1.30;;
7517;SDS011;3800;48.922;9.444;2023-04-24T04:38:57;3.10;;;1.50;;
7517;SDS011;3800;48.922;9.444;2023-04-24T04:41:26;2.63;;;1.33;;
7517;SDS011;3800;48.922;9.444;2023-04-24T04:43:54;3.67;;;1.43;;
7517;SDS011;3800;48.922;9.444;2023-04-24T04:46:22;2.60;;;1.30;;
7517;SDS011;3800;48.922;9.444;2023-04-24T04:48:50;1.27;;;1.10;;
7517;SDS011;3800;48.922;9.444;2023-04-24T04:51:19;3.23;;;1.23;;
7517;SDS011;3800;48.922;9.444;2023-04-24T04:53:47;2.10;;;1.50;;
7517;SDS011;3800;48.922;9.444;2023-04-24T04:56:15;2.23;;;1.57;;
7517;SDS011;3800;48.922;9.444;2023-04-24T04:58:44;2.67;;;1.40;;
7517;SDS011;3800;48.922;9.444;2023-04-24T05:01:13;1.60;;;1.37;;
7517;SDS011;3800;48.922;9.444;2023-04-24T05:03:41;1.87;;;1.50;;
7517;SDS011;3800;48.922;9.444;2023-04-24T05:06:09;2.17;;;1.27;;
7517;SDS011;3800;48.922;9.444;2023-04-24T05:08:38;3.17;;;1.47;;
7517;SDS011;3800;48.922;9.444;2023-04-24T05:11:06;2.50;;;1.53;;
7517;SDS011;3800;48.922;9.444;2023-04-24T05:13:34;2.20;;;1.40;;
7517;SDS011;3800;48.922;9.444;2023-04-24T05:16:02;3.53;;;1.60;;
7517;SDS011;3800;48.922;9.444;2023-04-24T05:18:31;1.80;;;1.40;;
7517;SDS011;3800;48.922;9.444;2023-04-24T05:21:00;3.90;;;1.60;;
7517;SDS011;3800;48.922;9.444;2023-04-24T05:23:28;1.73;;;1.53;;
7517;SDS011;3800;48.922;9.444;2023-04-24T05:25:56;2.20;;;1.50;;
7517;SDS011;3800;48.922;9.444;2023-04-24T05:28:25;4.67;;;1.80;;
7517;SDS011;3800;48.922;9.444;2023-04-24T05:30:54;2.17;;;1.63;;
7517;SDS011;3800;48.922;9.444;2023-04-24T05:33:21;3.23;;;2.20;;
7517;SDS011;3800;48.922;9.444;2023-04-24T05:35:50;2.00;;;1.80;;
7517;SDS011;3800;48.922;9.444;2023-04-24T05:38:18;2.57;;;1.80;;
7517;SDS011;3800;48.922;9.444;2023-04-24T05:40:46;3.10;;;1.87;;
7517;SDS011;3800;48.922;9.444;2023-04-24T05:43:14;3.23;;;2.00;;
7517;SDS011;3800;48.922;9.444;2023-04-24T05:45:43;2.63;;;2.07;;
7517;SDS011;3800;48.922;9.444;2023-04-24T05:48:11;3.00;;;2.27;;
7517;SDS011;3800;48.922;9.444;2023-04-24T05:50:39;4.40;;;2.30;;
7517;SDS011;3800;48.922;9.444;2023-04-24T05:53:07;3.73;;;2.37;;
7517;SDS011;3800;48.922;9.444;2023-04-24T05:55:36;2.37;;;2.17;;
7517;SDS011;3800;48.922;9.444;2023-04-24T05:58:05;2.97;;;2.27;;
7517;SDS011;3800;48.922;9.444;2023-04-24T06:00:33;2.60;;;2.40;;
7517;SDS011;3800;48.922;9.444;2023-04-24T06:03:02;5.27;;;2.67;;
7517;SDS011;3800;48.922;9.444;2023-04-24T06:05:30;2.73;;;2.53;;
7517;SDS011;3800;48.922;9.444;2023-04-24T06:07:59;2.67;;;2.40;;
7517;SDS011;3800;48.922;9.444;2023-04-24T06:10:27;3.07;;;2.77;;
7517;SDS011;3800;48.922;9.444;2023-04-24T06:12:57;3.30;;;3.00;;
7517;SDS011;3800;48.922;9.444;2023-04-24T06:15:26;3.23;;;2.70;;
7517;SDS011;3800;48.922;9.444;2023-04-24T06:17:54;3.00;;;2.70;;
7517;SDS011;3800;48.922;9.444;2023-04-24T06:20:22;3.30;;;3.00;;
7517;SDS011;3800;48.922;9.444;2023-04-24T06:22:50;2.90;;;2.70;;
7517;SDS011;3800;48.922;9.444;2023-04-24T06:25:19;3.60;;;3.17;;
7517;SDS011;3800;48.922;9.444;2023-04-24T06:27:47;3.97;;;3.07;;
7517;SDS011;3800;48.922;9.444;2023-04-24T06:30:15;4.73;;;3.23;;
7517;SDS011;3800;48.922;9.444;2023-04-24T06:32:43;3.80;;;3.20;;
7517;SDS011;3800;48.922;9.444;2023-04-24T06:35:12;3.47;;;3.17;;
7517;SDS011;3800;48.922;9.444;2023-04-24T06:37:41;5.57;;;3.20;;
7517;SDS011;3800;48.922;9.444;2023-04-24T06:40:09;4.73;;;3.10;;
7517;SDS011;3800;48.922;9.444;2023-04-24T06:42:37;3.43;;;3.03;;
7517;SDS011;3800;48.922;9.444;2023-04-24T06:45:06;5.10;;;3.30;;
7517;SDS011;3800;48.922;9.444;2023-04-24T06:47:34;4.10;;;3.60;;
7517;SDS011;3800;48.922;9.444;2023-04-24T06:50:03;3.50;;;3.20;;
7517;SDS011;3800;48.922;9.444;2023-04-24T06:52:33;4.00;;;3.40;;
7517;SDS011;3800;48.922;9.444;2023-04-24T06:55:02;3.70;;;3.40;;
7517;SDS011;3800;48.922;9.444;2023-04-24T06:57:30;4.30;;;3.90;;
7517;SDS011;3800;48.922;9.444;2023-04-24T06:59:58;4.23;;;3.90;;
7517;SDS011;3800;48.922;9.444;2023-04-24T07:02:27;4.60;;;3.47;;
7517;SDS011;3800;48.922;9.444;2023-04-24T07:04:56;3.77;;;3.30;;
7517;SDS011;3800;48.922;9.444;2023-04-24T07:07:25;3.20;;;2.90;;
7517;SDS011;3800;48.922;9.444;2023-04-24T07:09:53;2.73;;;2.40;;
7517;SDS011;3800;48.922;9.444;2023-04-24T07:12:21;3.77;;;2.80;;
7517;SDS011;3800;48.922;9.444;2023-04-24T07:14:50;3.43;;;2.90;;
7517;SDS011;3800;48.922;9.444;2023-04-24T07:17:18;3.97;;;2.70;;
7517;SDS011;3800;48.922;9.444;2023-04-24T07:19:46;3.97;;;2.90;;
7517;SDS011;3800;48.922;9.444;2023-04-24T07:22:14;3.03;;;2.67;;
7517;SDS011;3800;48.922;9.444;2023-04-24T07:24:44;3.17;;;2.77;;
7517;SDS011;3800;48.922;9.444;2023-04-24T07:27:12;3.00;;;2.60;;
7517;SDS011;3800;48.922;9.444;2023-04-24T07:29:40;2.83;;;2.50;;
7517;SDS011;3800;48.922;9.444;2023-04-24T07:32:09;5.17;;;2.80;;
7517;SDS011;3800;48.922;9.444;2023-04-24T07:34:37;3.43;;;2.63;;
7517;SDS011;3800;48.922;9.444;2023-04-24T07:37:06;3.30;;;2.90;;
7517;SDS011;3800;48.922;9.444;2023-04-24T07:39:34;3.47;;;2.87;;
7517;SDS011;3800;48.922;9.444;2023-04-24T07:42:03;3.97;;;2.67;;
7517;SDS011;3800;48.922;9.444;2023-04-24T07:44:31;3.20;;;2.70;;
7517;SDS011;3800;48.922;9.444;2023-04-24T07:46:59;4.57;;;2.80;;
7517;SDS011;3800;48.922;9.444;2023-04-24T07:49:27;3.67;;;2.77;;
7517;SDS011;3800;48.922;9.444;2023-04-24T07:51:56;4.40;;;2.80;;
7517;SDS011;3800;48.922;9.444;2023-04-24T07:54:25;3.63;;;3.27;;
7517;SDS011;3800;48.922;9.444;2023-04-24T07:56:53;3.87;;;3.20;;
7517;SDS011;3800;48.922;9.444;2023-04-24T07:59:22;3.30;;;2.97;;
7517;SDS011;3800;48.922;9.444;2023-04-24T08:01:50;3.00;;;2.80;;
7517;SDS011;3800;48.922;9.444;2023-04-24T08:04:19;3.80;;;2.63;;
7517;SDS011;3800;48.922;9.444;2023-04-24T08:06:48;3.80;;;2.40;;
7517;SDS011;3800;48.922;9.444;2023-04-24T08:09:16;3.77;;;2.50;;
7517;SDS011;3800;48.922;9.444;2023-04-24T08:11:45;2.73;;;2.37;;
7517;SDS011;3800;48.922;9.444;2023-04-24T08:14:13;2.50;;;2.30;;
7517;SDS011;3800;48.922;9.444;2023-04-24T08:16:41;2.93;;;1.97;;
7517;SDS011;3800;48.922;9.444;2023-04-24T08:19:10;3.43;;;2.30;;
7517;SDS011;3800;48.922;9.444;2023-04-24T08:21:38;2.63;;;2.40;;
7517;SDS011;3800;48.922;9.444;2023-04-24T08:24:06;4.27;;;2.57;;
7517;SDS011;3800;48.922;9.444;2023-04-24T08:26:35;2.70;;;2.27;;
7517;SDS011;3800;48.922;9.444;2023-04-24T08:29:04;4.73;;;2.10;;
7517;SDS011;3800;48.922;9.444;2023-04-24T08:31:32;4.80;;;2.20;;
7517;SDS011;3800;48.922;9.444;2023-04-24T08:34:01;9.70;;;2.57;;
7517;SDS011;3800;48.922;9.444;2023-04-24T08:36:29;4.73;;;2.30;;
7517;SDS011;3800;48.922;9.444;2023-04-24T08:38:57;2.30;;;2.10;;
7517;SDS011;3800;48.922;9.444;2023-04-24T08:41:26;3.27;;;2.20;;
7517;SDS011;3800;48.922;9.444;2023-04-24T08:43:54;3.67;;;2.20;;
7517;SDS011;3800;48.922;9.444;2023-04-24T08:46:23;3.37;;;1.83;;
7517;SDS011;3800;48.922;9.444;2023-04-24T08:48:51;2.73;;;2.00;;
7517;SDS011;3800;48.922;9.444;2023-04-24T08:51:19;5.50;;;2.00;;
7517;SDS011;3800;48.922;9.444;2023-04-24T08:53:47;3.23;;;1.93;;
7517;SDS011;3800;48.922;9.444;2023-04-24T08:56:16;3.60;;;2.00;;
7517;SDS011;3800;48.922;9.444;2023-04-24T08:58:44;4.03;;;1.63;;
7517;SDS011;3800;48.922;9.444;2023-04-24T09:01:12;2.30;;;1.70;;
7517;SDS011;3800;48.922;9.444;2023-04-24T09:03:41;3.00;;;1.70;;
7517;SDS011;3800;48.922;9.444;2023-04-24T09:06:10;2.47;;;1.63;;
7517;SDS011;3800;48.922;9.444;2023-04-24T09:08:38;1.80;;;1.70;;
7517;SDS011;3800;48.922;9.444;2023-04-24T09:11:06;1.70;;;1.60;;
7517;SDS011;3800;48.922;9.444;2023-04-24T09:13:34;1.60;;;1.33;;
7517;SDS011;3800;48.922;9.444;2023-04-24T09:16:03;1.80;;;1.50;;
7517;SDS011;3800;48.922;9.444;2023-04-24T09:18:31;1.67;;;1.43;;
7517;SDS011;3800;48.922;9.444;2023-04-24T09:21:02;4.03;;;1.80;;
7517;SDS011;3800;48.922;9.444;2023-04-24T09:23:30;2.20;;;1.50;;
7517;SDS011;3800;48.922;9.444;2023-04-24T09:25:58;3.03;;;1.60;;
7517;SDS011;3800;48.922;9.444;2023-04-24T09:28:29;2.00;;;1.80;;
7517;SDS011;3800;48.922;9.444;2023-04-24T09:31:03;3.03;;;1.50;;
7517;SDS011;3800;48.922;9.444;2023-04-24T09:36:27;2.47;;;1.80;;
7517;SDS011;3800;48.922;9.444;2023-04-24T09:39:01;1.83;;;1.43;;
7517;SDS011;3800;48.922;9.444;2023-04-24T09:41:29;2.43;;;1.63;;
7517;SDS011;3800;48.922;9.444;2023-04-24T09:43:58;1.53;;;1.43;;
7517;SDS011;3800;48.922;9.444;2023-04-24T09:46:29;2.93;;;1.83;;
7517;SDS011;3800;48.922;9.444;2023-04-24T09:49:07;1.70;;;1.60;;
7517;SDS011;3800;48.922;9.444;2023-04-24T09:51:35;3.93;;;1.63;;
7517;SDS011;3800;48.922;9.444;2023-04-24T09:54:04;2.97;;;1.70;;
7517;SDS011;3800;48.922;9.444;2023-04-24T09:56:32;1.87;;;1.70;;
7517;SDS011;3800;48.922;9.444;2023-04-24T09:59:08;2.17;;;1.53;;
7517;SDS011;3800;48.922;9.444;2023-04-24T10:01:36;4.50;;;1.63;;
7517;SDS011;3800;48.922;9.444;2023-04-24T10:04:04;2.13;;;1.60;;
7517;SDS011;3800;48.922;9.444;2023-04-24T10:06:33;1.57;;;1.47;;
7517;SDS011;3800;48.922;9.444;2023-04-24T10:09:02;1.73;;;1.63;;
7517;SDS011;3800;48.922;9.444;2023-04-24T10:11:30;1.60;;;1.50;;
7517;SDS011;3800;48.922;9.444;2023-04-24T10:13:58;2.50;;;1.60;;
7517;SDS011;3800;48.922;9.444;2023-04-24T10:16:27;2.97;;;1.50;;
7517;SDS011;3800;48.922;9.444;2023-04-24T10:18:56;2.47;;;1.60;;
7517;SDS011;3800;48.922;9.444;2023-04-24T10:21:25;4.27;;;1.70;;
7517;SDS011;3800;48.922;9.444;2023-04-24T10:23:53;3.73;;;1.60;;
7517;SDS011;3800;48.922;9.444;2023-04-24T10:26:21;2.20;;;1.80;;
7517;SDS011;3800;48.922;9.444;2023-04-24T10:28:50;1.60;;;1.50;;
7517;SDS011;3800;48.922;9.444;2023-04-24T10:31:18;3.37;;;1.93;;
7517;SDS011;3800;48.922;9.444;2023-04-24T10:33:47;2.17;;;1.40;;
7517;SDS011;3800;48.922;9.444;2023-04-24T10:36:15;1.53;;;1.40;;
7517;SDS011;3800;48.922;9.444;2023-04-24T10:38:43;2.10;;;1.60;;
7517;SDS011;3800;48.922;9.444;2023-04-24T10:41:12;3.07;;;1.57;;
7517;SDS011;3800;48.922;9.444;2023-04-24T10:43:43;2.73;;;1.60;;
7517;SDS011;3800;48.922;9.444;2023-04-24T10:46:16;3.10;;;1.73;;
7517;SDS011;3800;48.922;9.444;2023-04-24T10:48:41;1.93;;;1.73;;
7517;SDS011;3800;48.922;9.444;2023-04-24T10:51:11;2.00;;;1.47;;
7517;SDS011;3800;48.922;9.444;2023-04-24T10:53:38;2.40;;;1.80;;
7517;SDS011;3800;48.922;9.444;2023-04-24T10:56:07;2.00;;;1.80;;
7517;SDS011;3800;48.922;9.444;2023-04-24T10:58:36;1.70;;;1.60;;
7517;SDS011;3800;48.922;9.444;2023-04-24T11:01:04;2.63;;;1.97;;
7517;SDS011;3800;48.922;9.444;2023-04-24T11:03:34;3.07;;;1.87;;
7517;SDS011;3800;48.922;9.444;2023-04-24T11:06:04;2.13;;;1.80;;
7517;SDS011;3800;48.922;9.444;2023-04-24T11:08:37;2.13;;;1.93;;
7517;SDS011;3800;48.922;9.444;2023-04-24T11:11:08;2.60;;;1.90;;
7517;SDS011;3800;48.922;9.444;2023-04-24T11:16:30;2.33;;;1.80;;
7517;SDS011;3800;48.922;9.444;2023-04-24T11:19:01;3.17;;;2.10;;
7517;SDS011;3800;48.922;9.444;2023-04-24T11:24:27;2.17;;;1.90;;
7517;SDS011;3800;48.922;9.444;2023-04-24T11:27:05;3.50;;;1.90;;
7517;SDS011;3800;48.922;9.444;2023-04-24T11:29:41;2.67;;;2.00;;
7517;SDS011;3800;48.922;9.444;2023-04-24T11:34:46;2.90;;;1.70;;
7517;SDS011;3800;48.922;9.444;2023-04-24T11:37:16;2.90;;;1.70;;
7517;SDS011;3800;48.922;9.444;2023-04-24T11:39:44;1.60;;;1.50;;
7517;SDS011;3800;48.922;9.444;2023-04-24T11:42:14;1.77;;;1.63;;
7517;SDS011;3800;48.922;9.444;2023-04-24T11:44:43;1.97;;;1.80;;
7517;SDS011;3800;48.922;9.444;2023-04-24T11:47:11;3.37;;;1.53;;
7517;SDS011;3800;48.922;9.444;2023-04-24T11:49:40;1.77;;;1.50;;
7517;SDS011;3800;48.922;9.444;2023-04-24T11:52:08;2.33;;;1.50;;
7517;SDS011;3800;48.922;9.444;2023-04-24T11:54:36;2.27;;;1.73;;
7517;SDS011;3800;48.922;9.444;2023-04-24T11:57:05;2.20;;;1.83;;
7517;SDS011;3800;48.922;9.444;2023-04-24T11:59:35;3.40;;;1.90;;
7517;SDS011;3800;48.922;9.444;2023-04-24T12:02:03;1.87;;;1.77;;
7517;SDS011;3800;48.922;9.444;2023-04-24T12:04:38;3.17;;;2.20;;
7517;SDS011;3800;48.922;9.444;2023-04-24T12:07:07;2.97;;;2.13;;
7517;SDS011;3800;48.922;9.444;2023-04-24T12:09:42;2.27;;;2.07;;
7517;SDS011;3800;48.922;9.444;2023-04-24T12:12:14;3.23;;;2.10;;
7517;SDS011;3800;48.922;9.444;2023-04-24T12:14:43;2.53;;;2.30;;
7517;SDS011;3800;48.922;9.444;2023-04-24T12:17:24;2.23;;;1.80;;
7517;SDS011;3800;48.922;9.444;2023-04-24T12:19:57;2.20;;;2.00;;
7517;SDS011;3800;48.922;9.444;2023-04-24T12:22:26;3.30;;;1.83;;
7517;SDS011;3800;48.922;9.444;2023-04-24T12:24:56;2.20;;;1.80;;
7517;SDS011;3800;48.922;9.444;2023-04-24T12:27:31;3.50;;;2.00;;
7517;SDS011;3800;48.922;9.444;2023-04-24T12:30:00;2.50;;;2.07;;
7517;SDS011;3800;48.922;9.444;2023-04-24T12:32:28;3.50;;;2.10;;
7517;SDS011;3800;48.922;9.444;2023-04-24T12:34:56;2.77;;;2.10;;
7517;SDS011;3800;48.922;9.444;2023-04-24T12:37:25;5.63;;;2.10;;
7517;SDS011;3800;48.922;9.444;2023-04-24T12:40:00;2.83;;;2.30;;
7517;SDS011;3800;48.922;9.444;2023-04-24T12:42:34;2.00;;;1.80;;
7517;SDS011;3800;48.922;9.444;2023-04-24T12:45:03;4.43;;;2.20;;
7517;SDS011;3800;48.922;9.444;2023-04-24T12:47:30;2.20;;;2.00;;
7517;SDS011;3800;48.922;9.444;2023-04-24T12:50:00;2.53;;;2.10;;
7517;SDS011;3800;48.922;9.444;2023-04-24T12:52:29;2.43;;;2.00;;
7517;SDS011;3800;48.922;9.444;2023-04-24T12:54:57;1.87;;;1.73;;
7517;SDS011;3800;48.922;9.444;2023-04-24T12:57:25;2.33;;;1.77;;
7517;SDS011;3800;48.922;9.444;2023-04-24T12:59:54;2.70;;;1.90;;
7517;SDS011;3800;48.922;9.444;2023-04-24T13:02:25;6.47;;;2.07;;
7517;SDS011;3800;48.922;9.444;2023-04-24T13:04:52;2.37;;;1.87;;
7517;SDS011;3800;48.922;9.444;2023-04-24T13:07:21;5.07;;;2.20;;
7517;SDS011;3800;48.922;9.444;2023-04-24T13:09:49;4.00;;;2.10;;
7517;SDS011;3800;48.922;9.444;2023-04-24T13:12:17;2.17;;;1.97;;
7517;SDS011;3800;48.922;9.444;2023-04-24T13:14:46;3.07;;;2.23;;
7517;SDS011;3800;48.922;9.444;2023-04-24T13:17:14;3.03;;;2.10;;
7517;SDS011;3800;48.922;9.444;2023-04-24T13:19:43;3.47;;;2.17;;
7517;SDS011;3800;48.922;9.444;2023-04-24T13:22:12;2.60;;;2.10;;
7517;SDS011;3800;48.922;9.444;2023-04-24T13:24:40;2.40;;;2.20;;
7517;SDS011;3800;48.922;9.444;2023-04-24T13:27:09;2.63;;;2.43;;
7517;SDS011;3800;48.922;9.444;2023-04-24T13:29:37;2.80;;;2.57;;
7517;SDS011;3800;48.922;9.444;2023-04-24T13:32:06;3.33;;;3.03;;
7517;SDS011;3800;48.922;9.444;2023-04-24T13:34:34;6.33;;;3.13;;
7517;SDS011;3800;48.922;9.444;2023-04-24T13:37:02;4.53;;;2.97;;
7517;SDS011;3800;48.922;9.444;2023-04-24T13:39:30;2.90;;;2.10;;
7517;SDS011;3800;48.922;9.444;2023-04-24T13:41:59;4.30;;;2.43;;
7517;SDS011;3800;48.922;9.444;2023-04-24T13:44:28;5.73;;;3.23;;
7517;SDS011;3800;48.922;9.444;2023-04-24T13:46:57;5.00;;;4.00;;
7517;SDS011;3800;48.922;9.444;2023-04-24T13:49:25;3.50;;;3.10;;
7517;SDS011;3800;48.922;9.444;2023-04-24T13:51:54;3.43;;;2.70;;
7517;SDS011;3800;48.922;9.444;2023-04-24T13:54:22;2.53;;;2.10;;
7517;SDS011;3800;48.922;9.444;2023-04-24T13:56:51;2.90;;;2.60;;
7517;SDS011;3800;48.922;9.444;2023-04-24T13:59:20;2.80;;;2.30;;
7517;SDS011;3800;48.922;9.444;2023-04-24T14:01:48;2.70;;;2.30;;
7517;SDS011;3800;48.922;9.444;2023-04-24T14:04:16;5.00;;;2.30;;
7517;SDS011;3800;48.922;9.444;2023-04-24T14:06:44;6.67;;;2.37;;
7517;SDS011;3800;48.922;9.444;2023-04-24T14:09:13;2.93;;;2.30;;
7517;SDS011;3800;48.922;9.444;2023-04-24T14:11:41;2.87;;;2.40;;
7517;SDS011;3800;48.922;9.444;2023-04-24T14:14:09;3.20;;;2.23;;
7517;SDS011;3800;48.922;9.444;2023-04-24T14:16:38;3.50;;;2.50;;
7517;SDS011;3800;48.922;9.444;2023-04-24T14:19:06;4.00;;;2.60;;
7517;SDS011;3800;48.922;9.444;2023-04-24T14:21:35;3.07;;;2.60;;
7517;SDS011;3800;48.922;9.444;2023-04-24T14:24:04;2.50;;;2.30;;
7517;SDS011;3800;48.922;9.444;2023-04-24T14:26:32;2.57;;;2.20;;
7517;SDS011;3800;48.922;9.444;2023-04-24T14:29:00;2.67;;;2.40;;
7517;SDS011;3800;48.922;9.444;2023-04-24T14:31:28;3.33;;;2.30;;
7517;SDS011;3800;48.922;9.444;2023-04-24T14:33:57;2.30;;;2.10;;
7517;SDS011;3800;48.922;9.444;2023-04-24T14:36:26;3.00;;;2.50;;
7517;SDS011;3800;48.922;9.444;2023-04-24T14:38:54;2.60;;;2.37;;
7517;SDS011;3800;48.922;9.444;2023-04-24T14:41:23;4.00;;;2.20;;
7517;SDS011;3800;48.922;9.444;2023-04-24T14:43:51;4.97;;;2.10;;
7517;SDS011;3800;48.922;9.444;2023-04-24T14:46:19;3.53;;;2.47;;
7517;SDS011;3800;48.922;9.444;2023-04-24T14:48:48;3.60;;;2.43;;
7517;SDS011;3800;48.922;9.444;2023-04-24T14:51:16;3.67;;;2.33;;
7517;SDS011;3800;48.922;9.444;2023-04-24T14:53:44;3.23;;;2.20;;
7517;SDS011;3800;48.922;9.444;2023-04-24T14:56:13;2.33;;;2.10;;
7517;SDS011;3800;48.922;9.444;2023-04-24T14:58:41;2.60;;;2.10;;
7517;SDS011;3800;48.922;9.444;2023-04-24T15:01:10;2.50;;;2.30;;
7517;SDS011;3800;48.922;9.444;2023-04-24T15:03:37;2.37;;;2.17;;
7517;SDS011;3800;48.922;9.444;2023-04-24T15:06:06;2.63;;;2.10;;
7517;SDS011;3800;48.922;9.444;2023-04-24T15:08:34;3.40;;;2.10;;
7517;SDS011;3800;48.922;9.444;2023-04-24T15:11:02;2.20;;;2.00;;
7517;SDS011;3800;48.922;9.444;2023-04-24T15:13:30;2.87;;;2.03;;
7517;SDS011;3800;48.922;9.444;2023-04-24T15:15:59;3.37;;;2.30;;
7517;SDS011;3800;48.922;9.444;2023-04-24T15:18:27;2.40;;;2.20;;
7517;SDS011;3800;48.922;9.444;2023-04-24T15:20:55;2.17;;;1.97;;
7517;SDS011;3800;48.922;9.444;2023-04-24T15:23:24;2.23;;;2.03;;
7517;SDS011;3800;48.922;9.444;2023-04-24T15:25:52;2.87;;;2.10;;
7517;SDS011;3800;48.922;9.444;2023-04-24T15:28:21;5.77;;;2.07;;
7517;SDS011;3800;48.922;9.444;2023-04-24T15:30:50;2.90;;;2.10;;
7517;SDS011;3800;48.922;9.444;2023-04-24T15:33:19;4.67;;;2.10;;
7517;SDS011;3800;48.922;9.444;2023-04-24T15:35:47;2.43;;;1.80;;